sensor_id;sensor_type;location;lat;lon;timestamp;P1;durP1;ratioP1;P2;durP2;ratioP2
57720;SDS011;43562;43.064;0.160;2023-03-05T00:02:08;40.33;;;20.65;;
57720;SDS011;43562;43.064;0.160;2023-03-05T00:04:34;46.25;;;20.70;;
57720;SDS011;43562;43.064;0.160;2023-03-05T00:07:00;41.85;;;19.85;;
57720;SDS011;43562;43.064;0.160;2023-03-05T00:09:27;38.75;;;21.00;;
57720;SDS011;43562;43.064;0.160;2023-03-05T00:11:53;38.42;;;20.02;;
57720;SDS011;43562;43.064;0.160;2023-03-05T00:14:19;39.85;;;19.85;;
57720;SDS011;43562;43.064;0.160;2023-03-05T00:16:45;38.85;;;19.20;;
57720;SDS011;43562;43.064;0.160;2023-03-05T00:19:11;36.78;;;19.75;;
57720;SDS011;43562;43.064;0.160;2023-03-05T00:21:38;32.67;;;18.17;;
57720;SDS011;43562;43.064;0.160;2023-03-05T00:24:10;34.30;;;17.55;;
57720;SDS011;43562;43.064;0.160;2023-03-05T00:26:36;34.33;;;18.83;;
57720;SDS011;43562;43.064;0.160;2023-03-05T00:29:03;38.67;;;18.48;;
57720;SDS011;43562;43.064;0.160;2023-03-05T00:31:30;34.97;;;17.23;;
57720;SDS011;43562;43.064;0.160;2023-03-05T00:33:58;35.92;;;17.92;;
57720;SDS011;43562;43.064;0.160;2023-03-05T00:36:25;30.08;;;15.43;;
57720;SDS011;43562;43.064;0.160;2023-03-05T00:38:51;31.48;;;17.98;;
57720;SDS011;43562;43.064;0.160;2023-03-05T00:41:18;32.92;;;17.13;;
57720;SDS011;43562;43.064;0.160;2023-03-05T00:43:44;35.60;;;18.10;;
57720;SDS011;43562;43.064;0.160;2023-03-05T00:46:10;34.50;;;17.08;;
57720;SDS011;43562;43.064;0.160;2023-03-05T00:48:36;32.97;;;16.55;;
57720;SDS011;43562;43.064;0.160;2023-03-05T00:51:02;30.92;;;16.10;;
57720;SDS011;43562;43.064;0.160;2023-03-05T00:53:29;34.75;;;16.70;;
57720;SDS011;43562;43.064;0.160;2023-03-05T00:55:55;37.38;;;20.20;;
57720;SDS011;43562;43.064;0.160;2023-03-05T00:58:21;31.45;;;17.92;;
57720;SDS011;43562;43.064;0.160;2023-03-05T01:00:47;35.15;;;17.27;;
57720;SDS011;43562;43.064;0.160;2023-03-05T01:03:16;38.72;;;19.10;;
57720;SDS011;43562;43.064;0.160;2023-03-05T01:05:43;36.10;;;19.67;;
57720;SDS011;43562;43.064;0.160;2023-03-05T01:08:09;32.85;;;17.02;;
57720;SDS011;43562;43.064;0.160;2023-03-05T01:10:35;30.48;;;15.93;;
57720;SDS011;43562;43.064;0.160;2023-03-05T01:13:01;28.70;;;13.75;;
57720;SDS011;43562;43.064;0.160;2023-03-05T01:15:27;30.10;;;14.80;;
57720;SDS011;43562;43.064;0.160;2023-03-05T01:17:53;25.67;;;15.60;;
57720;SDS011;43562;43.064;0.160;2023-03-05T01:20:20;32.35;;;15.35;;
57720;SDS011;43562;43.064;0.160;2023-03-05T01:22:46;37.05;;;18.88;;
57720;SDS011;43562;43.064;0.160;2023-03-05T01:25:13;31.98;;;16.17;;
57720;SDS011;43562;43.064;0.160;2023-03-05T01:27:39;26.25;;;13.65;;
57720;SDS011;43562;43.064;0.160;2023-03-05T01:30:06;27.98;;;15.52;;
57720;SDS011;43562;43.064;0.160;2023-03-05T01:32:33;25.52;;;14.93;;
57720;SDS011;43562;43.064;0.160;2023-03-05T01:35:00;26.50;;;15.20;;
57720;SDS011;43562;43.064;0.160;2023-03-05T01:37:26;28.15;;;14.55;;
57720;SDS011;43562;43.064;0.160;2023-03-05T01:39:52;26.67;;;15.27;;
57720;SDS011;43562;43.064;0.160;2023-03-05T01:42:18;24.98;;;14.90;;
57720;SDS011;43562;43.064;0.160;2023-03-05T01:45:02;27.63;;;15.75;;
57720;SDS011;43562;43.064;0.160;2023-03-05T01:47:28;26.38;;;15.07;;
57720;SDS011;43562;43.064;0.160;2023-03-05T01:49:54;30.02;;;15.98;;
57720;SDS011;43562;43.064;0.160;2023-03-05T01:52:22;22.67;;;13.55;;
57720;SDS011;43562;43.064;0.160;2023-03-05T01:54:49;26.70;;;13.70;;
57720;SDS011;43562;43.064;0.160;2023-03-05T01:57:16;28.48;;;14.82;;
57720;SDS011;43562;43.064;0.160;2023-03-05T01:59:43;26.08;;;13.82;;
57720;SDS011;43562;43.064;0.160;2023-03-05T02:02:10;29.52;;;16.50;;
57720;SDS011;43562;43.064;0.160;2023-03-05T02:04:41;24.55;;;15.15;;
57720;SDS011;43562;43.064;0.160;2023-03-05T02:07:09;29.67;;;14.85;;
57720;SDS011;43562;43.064;0.160;2023-03-05T02:09:37;22.42;;;13.88;;
57720;SDS011;43562;43.064;0.160;2023-03-05T02:12:03;23.33;;;13.73;;
57720;SDS011;43562;43.064;0.160;2023-03-05T02:14:29;20.50;;;13.15;;
57720;SDS011;43562;43.064;0.160;2023-03-05T02:16:56;20.25;;;12.65;;
57720;SDS011;43562;43.064;0.160;2023-03-05T02:19:22;21.85;;;13.30;;
57720;SDS011;43562;43.064;0.160;2023-03-05T02:21:48;23.70;;;14.60;;
57720;SDS011;43562;43.064;0.160;2023-03-05T02:24:32;21.63;;;12.35;;
57720;SDS011;43562;43.064;0.160;2023-03-05T02:26:59;20.15;;;12.85;;
57720;SDS011;43562;43.064;0.160;2023-03-05T02:29:25;19.73;;;10.85;;
57720;SDS011;43562;43.064;0.160;2023-03-05T02:31:53;79.07;;;26.60;;
57720;SDS011;43562;43.064;0.160;2023-03-05T02:34:20;29.70;;;15.50;;
57720;SDS011;43562;43.064;0.160;2023-03-05T02:36:46;54.90;;;23.50;;
57720;SDS011;43562;43.064;0.160;2023-03-05T02:39:14;61.95;;;22.80;;
57720;SDS011;43562;43.064;0.160;2023-03-05T02:41:40;33.42;;;16.30;;
57720;SDS011;43562;43.064;0.160;2023-03-05T02:44:06;19.58;;;12.02;;
57720;SDS011;43562;43.064;0.160;2023-03-05T02:46:33;20.45;;;11.02;;
57720;SDS011;43562;43.064;0.160;2023-03-05T02:48:59;16.25;;;11.13;;
57720;SDS011;43562;43.064;0.160;2023-03-05T02:51:25;18.83;;;11.30;;
57720;SDS011;43562;43.064;0.160;2023-03-05T02:53:51;14.45;;;9.80;;
57720;SDS011;43562;43.064;0.160;2023-03-05T02:56:17;20.38;;;9.95;;
57720;SDS011;43562;43.064;0.160;2023-03-05T02:58:43;18.80;;;11.02;;
57720;SDS011;43562;43.064;0.160;2023-03-05T03:01:09;15.48;;;10.18;;
57720;SDS011;43562;43.064;0.160;2023-03-05T03:03:36;14.23;;;10.23;;
57720;SDS011;43562;43.064;0.160;2023-03-05T03:06:02;13.75;;;10.20;;
57720;SDS011;43562;43.064;0.160;2023-03-05T03:08:28;18.67;;;11.57;;
57720;SDS011;43562;43.064;0.160;2023-03-05T03:10:54;57.65;;;27.55;;
57720;SDS011;43562;43.064;0.160;2023-03-05T03:13:22;39.83;;;20.33;;
57720;SDS011;43562;43.064;0.160;2023-03-05T03:15:48;28.92;;;16.25;;
57720;SDS011;43562;43.064;0.160;2023-03-05T03:18:14;17.75;;;12.55;;
57720;SDS011;43562;43.064;0.160;2023-03-05T03:20:40;17.58;;;10.63;;
57720;SDS011;43562;43.064;0.160;2023-03-05T03:23:06;17.33;;;10.80;;
57720;SDS011;43562;43.064;0.160;2023-03-05T03:25:33;17.50;;;11.73;;
57720;SDS011;43562;43.064;0.160;2023-03-05T03:27:59;13.60;;;8.77;;
57720;SDS011;43562;43.064;0.160;2023-03-05T03:30:25;13.50;;;7.53;;
57720;SDS011;43562;43.064;0.160;2023-03-05T03:32:51;11.57;;;7.03;;
57720;SDS011;43562;43.064;0.160;2023-03-05T03:35:17;12.48;;;8.85;;
57720;SDS011;43562;43.064;0.160;2023-03-05T03:37:43;13.40;;;9.05;;
57720;SDS011;43562;43.064;0.160;2023-03-05T03:40:10;15.30;;;9.48;;
57720;SDS011;43562;43.064;0.160;2023-03-05T03:42:36;14.23;;;9.55;;
57720;SDS011;43562;43.064;0.160;2023-03-05T03:45:02;15.18;;;9.88;;
57720;SDS011;43562;43.064;0.160;2023-03-05T03:47:29;24.95;;;15.70;;
57720;SDS011;43562;43.064;0.160;2023-03-05T03:49:55;9.88;;;8.07;;
57720;SDS011;43562;43.064;0.160;2023-03-05T03:52:22;11.55;;;8.95;;
57720;SDS011;43562;43.064;0.160;2023-03-05T03:54:49;9.15;;;8.25;;
57720;SDS011;43562;43.064;0.160;2023-03-05T03:57:17;8.02;;;7.22;;
57720;SDS011;43562;43.064;0.160;2023-03-05T03:59:43;9.50;;;7.55;;
57720;SDS011;43562;43.064;0.160;2023-03-05T04:02:10;12.23;;;8.05;;
57720;SDS011;43562;43.064;0.160;2023-03-05T04:04:36;10.77;;;7.43;;
57720;SDS011;43562;43.064;0.160;2023-03-05T04:07:02;10.07;;;6.22;;
57720;SDS011;43562;43.064;0.160;2023-03-05T04:09:28;10.88;;;8.07;;
57720;SDS011;43562;43.064;0.160;2023-03-05T04:11:54;9.13;;;7.50;;
57720;SDS011;43562;43.064;0.160;2023-03-05T04:14:20;10.38;;;7.43;;
57720;SDS011;43562;43.064;0.160;2023-03-05T04:16:46;8.77;;;7.40;;
57720;SDS011;43562;43.064;0.160;2023-03-05T04:19:12;10.73;;;8.27;;
57720;SDS011;43562;43.064;0.160;2023-03-05T04:21:38;12.43;;;6.65;;
57720;SDS011;43562;43.064;0.160;2023-03-05T04:24:04;11.27;;;7.40;;
57720;SDS011;43562;43.064;0.160;2023-03-05T04:26:32;9.55;;;7.43;;
57720;SDS011;43562;43.064;0.160;2023-03-05T04:28:58;13.85;;;8.55;;
57720;SDS011;43562;43.064;0.160;2023-03-05T04:31:24;10.18;;;8.90;;
57720;SDS011;43562;43.064;0.160;2023-03-05T04:33:50;9.05;;;7.20;;
57720;SDS011;43562;43.064;0.160;2023-03-05T04:36:16;8.45;;;7.55;;
57720;SDS011;43562;43.064;0.160;2023-03-05T04:38:42;8.57;;;7.78;;
57720;SDS011;43562;43.064;0.160;2023-03-05T04:41:08;7.85;;;7.03;;
57720;SDS011;43562;43.064;0.160;2023-03-05T04:43:34;8.18;;;7.07;;
57720;SDS011;43562;43.064;0.160;2023-03-05T04:46:00;9.35;;;7.95;;
57720;SDS011;43562;43.064;0.160;2023-03-05T04:48:26;15.10;;;7.88;;
57720;SDS011;43562;43.064;0.160;2023-03-05T04:50:53;11.90;;;8.32;;
57720;SDS011;43562;43.064;0.160;2023-03-05T04:53:19;11.35;;;7.72;;
57720;SDS011;43562;43.064;0.160;2023-03-05T04:55:45;11.68;;;7.82;;
57720;SDS011;43562;43.064;0.160;2023-03-05T04:58:11;8.95;;;6.85;;
57720;SDS011;43562;43.064;0.160;2023-03-05T05:00:37;11.18;;;6.97;;
57720;SDS011;43562;43.064;0.160;2023-03-05T05:03:03;8.82;;;5.53;;
57720;SDS011;43562;43.064;0.160;2023-03-05T05:05:29;10.18;;;5.70;;
57720;SDS011;43562;43.064;0.160;2023-03-05T05:07:56;10.48;;;7.47;;
57720;SDS011;43562;43.064;0.160;2023-03-05T05:10:22;12.40;;;7.43;;
57720;SDS011;43562;43.064;0.160;2023-03-05T05:12:49;8.13;;;6.85;;
57720;SDS011;43562;43.064;0.160;2023-03-05T05:15:15;11.38;;;7.00;;
57720;SDS011;43562;43.064;0.160;2023-03-05T05:17:41;8.43;;;7.20;;
57720;SDS011;43562;43.064;0.160;2023-03-05T05:20:09;7.10;;;6.38;;
57720;SDS011;43562;43.064;0.160;2023-03-05T05:22:35;14.52;;;7.00;;
57720;SDS011;43562;43.064;0.160;2023-03-05T05:25:02;7.07;;;6.28;;
57720;SDS011;43562;43.064;0.160;2023-03-05T05:27:29;8.45;;;7.07;;
57720;SDS011;43562;43.064;0.160;2023-03-05T05:29:55;7.55;;;6.38;;
57720;SDS011;43562;43.064;0.160;2023-03-05T05:32:22;11.43;;;8.85;;
57720;SDS011;43562;43.064;0.160;2023-03-05T05:34:52;25.75;;;15.18;;
57720;SDS011;43562;43.064;0.160;2023-03-05T05:37:18;11.50;;;7.53;;
57720;SDS011;43562;43.064;0.160;2023-03-05T05:39:44;7.18;;;5.68;;
57720;SDS011;43562;43.064;0.160;2023-03-05T05:42:14;7.35;;;6.45;;
57720;SDS011;43562;43.064;0.160;2023-03-05T05:44:40;11.02;;;7.88;;
57720;SDS011;43562;43.064;0.160;2023-03-05T05:47:06;11.00;;;7.50;;
57720;SDS011;43562;43.064;0.160;2023-03-05T05:49:32;9.35;;;7.75;;
57720;SDS011;43562;43.064;0.160;2023-03-05T05:51:58;12.07;;;8.15;;
57720;SDS011;43562;43.064;0.160;2023-03-05T05:54:25;10.60;;;8.18;;
57720;SDS011;43562;43.064;0.160;2023-03-05T05:56:51;8.88;;;7.93;;
57720;SDS011;43562;43.064;0.160;2023-03-05T05:59:17;10.57;;;7.05;;
57720;SDS011;43562;43.064;0.160;2023-03-05T06:01:43;8.73;;;6.20;;
57720;SDS011;43562;43.064;0.160;2023-03-05T06:04:09;8.27;;;6.95;;
57720;SDS011;43562;43.064;0.160;2023-03-05T06:06:35;8.95;;;6.82;;
57720;SDS011;43562;43.064;0.160;2023-03-05T06:09:02;9.95;;;6.75;;
57720;SDS011;43562;43.064;0.160;2023-03-05T06:11:28;6.43;;;5.82;;
57720;SDS011;43562;43.064;0.160;2023-03-05T06:13:54;7.40;;;5.93;;
57720;SDS011;43562;43.064;0.160;2023-03-05T06:16:21;7.32;;;6.70;;
57720;SDS011;43562;43.064;0.160;2023-03-05T06:18:48;9.77;;;6.30;;
57720;SDS011;43562;43.064;0.160;2023-03-05T06:21:15;7.60;;;6.80;;
57720;SDS011;43562;43.064;0.160;2023-03-05T06:23:42;11.98;;;10.57;;
57720;SDS011;43562;43.064;0.160;2023-03-05T06:26:09;9.02;;;8.13;;
57720;SDS011;43562;43.064;0.160;2023-03-05T06:28:36;11.10;;;9.93;;
57720;SDS011;43562;43.064;0.160;2023-03-05T06:31:05;9.05;;;7.90;;
57720;SDS011;43562;43.064;0.160;2023-03-05T06:33:32;9.70;;;8.02;;
57720;SDS011;43562;43.064;0.160;2023-03-05T06:35:58;7.60;;;6.85;;
57720;SDS011;43562;43.064;0.160;2023-03-05T06:38:25;8.57;;;7.68;;
57720;SDS011;43562;43.064;0.160;2023-03-05T06:40:51;7.47;;;6.70;;
57720;SDS011;43562;43.064;0.160;2023-03-05T06:43:17;7.80;;;7.00;;
57720;SDS011;43562;43.064;0.160;2023-03-05T06:45:43;9.85;;;8.85;;
57720;SDS011;43562;43.064;0.160;2023-03-05T06:48:09;6.57;;;5.88;;
57720;SDS011;43562;43.064;0.160;2023-03-05T06:50:36;8.75;;;5.45;;
57720;SDS011;43562;43.064;0.160;2023-03-05T06:53:03;7.75;;;7.03;;
57720;SDS011;43562;43.064;0.160;2023-03-05T06:55:29;7.15;;;6.43;;
57720;SDS011;43562;43.064;0.160;2023-03-05T06:57:55;13.93;;;7.75;;
57720;SDS011;43562;43.064;0.160;2023-03-05T07:00:21;7.93;;;6.78;;
57720;SDS011;43562;43.064;0.160;2023-03-05T07:02:48;14.32;;;9.52;;
57720;SDS011;43562;43.064;0.160;2023-03-05T07:05:14;9.55;;;7.20;;
57720;SDS011;43562;43.064;0.160;2023-03-05T07:07:40;14.40;;;9.55;;
57720;SDS011;43562;43.064;0.160;2023-03-05T07:10:07;8.73;;;6.07;;
57720;SDS011;43562;43.064;0.160;2023-03-05T07:12:33;13.65;;;7.15;;
57720;SDS011;43562;43.064;0.160;2023-03-05T07:15:00;11.02;;;7.25;;
57720;SDS011;43562;43.064;0.160;2023-03-05T07:17:26;11.00;;;7.18;;
57720;SDS011;43562;43.064;0.160;2023-03-05T07:19:52;9.15;;;7.38;;
57720;SDS011;43562;43.064;0.160;2023-03-05T07:22:18;11.50;;;8.88;;
57720;SDS011;43562;43.064;0.160;2023-03-05T07:24:44;8.75;;;7.82;;
57720;SDS011;43562;43.064;0.160;2023-03-05T07:27:11;6.75;;;6.07;;
57720;SDS011;43562;43.064;0.160;2023-03-05T07:29:37;8.25;;;7.28;;
57720;SDS011;43562;43.064;0.160;2023-03-05T07:32:03;10.90;;;7.25;;
57720;SDS011;43562;43.064;0.160;2023-03-05T07:34:29;9.02;;;8.18;;
57720;SDS011;43562;43.064;0.160;2023-03-05T07:36:55;8.63;;;6.63;;
57720;SDS011;43562;43.064;0.160;2023-03-05T07:39:21;7.38;;;5.90;;
57720;SDS011;43562;43.064;0.160;2023-03-05T07:41:47;7.47;;;6.70;;
57720;SDS011;43562;43.064;0.160;2023-03-05T07:44:15;9.05;;;7.15;;
57720;SDS011;43562;43.064;0.160;2023-03-05T07:46:42;7.50;;;6.78;;
57720;SDS011;43562;43.064;0.160;2023-03-05T07:49:08;6.00;;;5.40;;
57720;SDS011;43562;43.064;0.160;2023-03-05T07:51:34;8.52;;;5.95;;
57720;SDS011;43562;43.064;0.160;2023-03-05T07:54:00;10.25;;;7.60;;
57720;SDS011;43562;43.064;0.160;2023-03-05T07:56:28;8.93;;;7.30;;
57720;SDS011;43562;43.064;0.160;2023-03-05T07:58:57;6.80;;;6.10;;
57720;SDS011;43562;43.064;0.160;2023-03-05T08:01:24;5.65;;;4.60;;
57720;SDS011;43562;43.064;0.160;2023-03-05T08:03:51;4.68;;;3.95;;
57720;SDS011;43562;43.064;0.160;2023-03-05T08:06:24;4.93;;;4.38;;
57720;SDS011;43562;43.064;0.160;2023-03-05T08:09:02;5.32;;;4.50;;
57720;SDS011;43562;43.064;0.160;2023-03-05T08:11:29;5.68;;;5.05;;
57720;SDS011;43562;43.064;0.160;2023-03-05T08:13:55;5.53;;;5.03;;
57720;SDS011;43562;43.064;0.160;2023-03-05T08:16:23;4.70;;;4.22;;
57720;SDS011;43562;43.064;0.160;2023-03-05T08:18:52;6.50;;;6.00;;
57720;SDS011;43562;43.064;0.160;2023-03-05T08:21:20;6.18;;;5.75;;
57720;SDS011;43562;43.064;0.160;2023-03-05T08:23:47;5.03;;;4.65;;
57720;SDS011;43562;43.064;0.160;2023-03-05T08:26:14;7.45;;;6.85;;
57720;SDS011;43562;43.064;0.160;2023-03-05T08:28:40;7.03;;;6.53;;
57720;SDS011;43562;43.064;0.160;2023-03-05T08:31:09;5.18;;;4.78;;
57720;SDS011;43562;43.064;0.160;2023-03-05T08:33:36;4.53;;;4.13;;
57720;SDS011;43562;43.064;0.160;2023-03-05T08:36:02;4.90;;;4.20;;
57720;SDS011;43562;43.064;0.160;2023-03-05T08:38:28;4.05;;;3.28;;
57720;SDS011;43562;43.064;0.160;2023-03-05T08:40:55;4.72;;;4.13;;
57720;SDS011;43562;43.064;0.160;2023-03-05T08:43:21;7.07;;;4.20;;
57720;SDS011;43562;43.064;0.160;2023-03-05T08:45:47;8.52;;;7.78;;
57720;SDS011;43562;43.064;0.160;2023-03-05T08:48:13;6.38;;;5.22;;
57720;SDS011;43562;43.064;0.160;2023-03-05T08:50:40;4.25;;;3.95;;
57720;SDS011;43562;43.064;0.160;2023-03-05T08:53:06;3.88;;;3.47;;
57720;SDS011;43562;43.064;0.160;2023-03-05T08:55:32;4.43;;;3.70;;
57720;SDS011;43562;43.064;0.160;2023-03-05T08:57:58;5.30;;;3.50;;
57720;SDS011;43562;43.064;0.160;2023-03-05T09:00:25;4.75;;;4.35;;
57720;SDS011;43562;43.064;0.160;2023-03-05T09:02:51;4.35;;;4.05;;
57720;SDS011;43562;43.064;0.160;2023-03-05T09:05:17;4.95;;;4.53;;
57720;SDS011;43562;43.064;0.160;2023-03-05T09:07:43;3.78;;;3.45;;
57720;SDS011;43562;43.064;0.160;2023-03-05T09:10:09;12.02;;;9.73;;
57720;SDS011;43562;43.064;0.160;2023-03-05T09:12:37;3.58;;;3.28;;
57720;SDS011;43562;43.064;0.160;2023-03-05T09:15:04;4.20;;;3.92;;
57720;SDS011;43562;43.064;0.160;2023-03-05T09:17:32;4.57;;;4.28;;
57720;SDS011;43562;43.064;0.160;2023-03-05T09:19:59;4.25;;;3.15;;
57720;SDS011;43562;43.064;0.160;2023-03-05T09:22:25;3.83;;;3.53;;
57720;SDS011;43562;43.064;0.160;2023-03-05T09:24:51;4.55;;;4.15;;
57720;SDS011;43562;43.064;0.160;2023-03-05T09:27:17;3.33;;;2.95;;
57720;SDS011;43562;43.064;0.160;2023-03-05T09:29:43;3.92;;;3.28;;
57720;SDS011;43562;43.064;0.160;2023-03-05T09:32:09;3.97;;;3.08;;
57720;SDS011;43562;43.064;0.160;2023-03-05T09:34:35;4.07;;;2.78;;
57720;SDS011;43562;43.064;0.160;2023-03-05T09:37:02;3.97;;;3.15;;
57720;SDS011;43562;43.064;0.160;2023-03-05T09:39:28;3.47;;;3.17;;
57720;SDS011;43562;43.064;0.160;2023-03-05T09:47:21;3.20;;;2.90;;
57720;SDS011;43562;43.064;0.160;2023-03-05T09:50:02;3.05;;;2.75;;
57720;SDS011;43562;43.064;0.160;2023-03-05T09:54:57;4.35;;;4.05;;
57720;SDS011;43562;43.064;0.160;2023-03-05T09:57:59;5.07;;;4.57;;
57720;SDS011;43562;43.064;0.160;2023-03-05T10:02:49;3.72;;;3.40;;
57720;SDS011;43562;43.064;0.160;2023-03-05T10:08:02;4.22;;;4.03;;
57720;SDS011;43562;43.064;0.160;2023-03-05T10:13:04;4.57;;;4.25;;
57720;SDS011;43562;43.064;0.160;2023-03-05T10:15:40;4.10;;;3.72;;
57720;SDS011;43562;43.064;0.160;2023-03-05T10:20:48;4.72;;;4.43;;
57720;SDS011;43562;43.064;0.160;2023-03-05T10:28:43;4.03;;;3.10;;
57720;SDS011;43562;43.064;0.160;2023-03-05T10:31:21;4.68;;;2.90;;
57720;SDS011;43562;43.064;0.160;2023-03-05T10:38:54;3.40;;;2.53;;
57720;SDS011;43562;43.064;0.160;2023-03-05T10:41:26;5.50;;;2.50;;
57720;SDS011;43562;43.064;0.160;2023-03-05T10:43:57;2.90;;;2.65;;
57720;SDS011;43562;43.064;0.160;2023-03-05T10:46:30;2.95;;;2.72;;
57720;SDS011;43562;43.064;0.160;2023-03-05T10:54:13;6.30;;;3.08;;
57720;SDS011;43562;43.064;0.160;2023-03-05T10:56:43;2.45;;;2.35;;
57720;SDS011;43562;43.064;0.160;2023-03-05T10:59:09;4.18;;;3.40;;
57720;SDS011;43562;43.064;0.160;2023-03-05T11:01:35;3.85;;;3.50;;
57720;SDS011;43562;43.064;0.160;2023-03-05T11:06:40;3.33;;;3.13;;
57720;SDS011;43562;43.064;0.160;2023-03-05T11:09:20;3.33;;;3.17;;
57720;SDS011;43562;43.064;0.160;2023-03-05T11:14:27;3.78;;;3.58;;
57720;SDS011;43562;43.064;0.160;2023-03-05T11:17:01;3.45;;;3.25;;
57720;SDS011;43562;43.064;0.160;2023-03-05T11:19:29;7.05;;;4.07;;
57720;SDS011;43562;43.064;0.160;2023-03-05T11:22:06;3.35;;;3.13;;
57720;SDS011;43562;43.064;0.160;2023-03-05T11:24:35;4.25;;;3.30;;
57720;SDS011;43562;43.064;0.160;2023-03-05T11:27:01;3.90;;;3.55;;
57720;SDS011;43562;43.064;0.160;2023-03-05T11:29:28;4.47;;;3.40;;
57720;SDS011;43562;43.064;0.160;2023-03-05T11:31:55;4.97;;;4.47;;
57720;SDS011;43562;43.064;0.160;2023-03-05T11:34:39;4.80;;;4.32;;
57720;SDS011;43562;43.064;0.160;2023-03-05T11:37:05;4.47;;;4.22;;
57720;SDS011;43562;43.064;0.160;2023-03-05T11:39:33;5.35;;;4.85;;
57720;SDS011;43562;43.064;0.160;2023-03-05T11:44:34;8.23;;;6.28;;
57720;SDS011;43562;43.064;0.160;2023-03-05T11:47:12;7.97;;;5.13;;
57720;SDS011;43562;43.064;0.160;2023-03-05T11:49:45;6.75;;;4.82;;
57720;SDS011;43562;43.064;0.160;2023-03-05T11:52:33;6.25;;;5.65;;
57720;SDS011;43562;43.064;0.160;2023-03-05T11:55:12;11.45;;;7.32;;
57720;SDS011;43562;43.064;0.160;2023-03-05T11:57:45;9.63;;;6.88;;
57720;SDS011;43562;43.064;0.160;2023-03-05T12:00:16;10.07;;;5.75;;
57720;SDS011;43562;43.064;0.160;2023-03-05T12:02:44;9.13;;;6.22;;
57720;SDS011;43562;43.064;0.160;2023-03-05T12:05:13;9.70;;;5.65;;
57720;SDS011;43562;43.064;0.160;2023-03-05T12:07:40;10.80;;;6.85;;
57720;SDS011;43562;43.064;0.160;2023-03-05T12:10:13;9.57;;;6.53;;
57720;SDS011;43562;43.064;0.160;2023-03-05T12:12:46;11.57;;;9.23;;
57720;SDS011;43562;43.064;0.160;2023-03-05T12:15:37;12.00;;;8.05;;
57720;SDS011;43562;43.064;0.160;2023-03-05T12:23:15;12.98;;;7.97;;
57720;SDS011;43562;43.064;0.160;2023-03-05T12:25:47;13.13;;;7.75;;
57720;SDS011;43562;43.064;0.160;2023-03-05T12:28:14;15.70;;;10.15;;
57720;SDS011;43562;43.064;0.160;2023-03-05T12:35:51;16.55;;;10.50;;
57720;SDS011;43562;43.064;0.160;2023-03-05T12:38:27;13.43;;;9.45;;
57720;SDS011;43562;43.064;0.160;2023-03-05T12:43:38;14.90;;;8.95;;
57720;SDS011;43562;43.064;0.160;2023-03-05T12:46:25;16.17;;;9.23;;
57720;SDS011;43562;43.064;0.160;2023-03-05T12:48:53;14.85;;;9.43;;
57720;SDS011;43562;43.064;0.160;2023-03-05T12:51:29;16.67;;;8.68;;
57720;SDS011;43562;43.064;0.160;2023-03-05T12:53:56;15.60;;;9.43;;
57720;SDS011;43562;43.064;0.160;2023-03-05T12:56:24;13.52;;;8.68;;
57720;SDS011;43562;43.064;0.160;2023-03-05T12:58:52;13.50;;;8.70;;
57720;SDS011;43562;43.064;0.160;2023-03-05T13:04:10;11.13;;;7.95;;
57720;SDS011;43562;43.064;0.160;2023-03-05T13:06:39;11.20;;;8.40;;
57720;SDS011;43562;43.064;0.160;2023-03-05T13:09:19;13.43;;;8.48;;
57720;SDS011;43562;43.064;0.160;2023-03-05T13:11:48;15.02;;;8.95;;
57720;SDS011;43562;43.064;0.160;2023-03-05T13:17:00;17.63;;;10.55;;
57720;SDS011;43562;43.064;0.160;2023-03-05T13:19:26;15.95;;;9.45;;
57720;SDS011;43562;43.064;0.160;2023-03-05T13:22:01;17.88;;;10.00;;
57720;SDS011;43562;43.064;0.160;2023-03-05T13:24:27;16.42;;;9.90;;
57720;SDS011;43562;43.064;0.160;2023-03-05T13:26:54;15.35;;;9.98;;
57720;SDS011;43562;43.064;0.160;2023-03-05T13:29:21;13.85;;;8.52;;
57720;SDS011;43562;43.064;0.160;2023-03-05T13:31:51;14.50;;;9.32;;
57720;SDS011;43562;43.064;0.160;2023-03-05T13:39:18;18.80;;;10.52;;
57720;SDS011;43562;43.064;0.160;2023-03-05T13:41:54;18.20;;;9.20;;
57720;SDS011;43562;43.064;0.160;2023-03-05T13:46:46;14.43;;;8.98;;
57720;SDS011;43562;43.064;0.160;2023-03-05T13:49:23;13.85;;;9.82;;
57720;SDS011;43562;43.064;0.160;2023-03-05T13:51:51;17.65;;;9.52;;
57720;SDS011;43562;43.064;0.160;2023-03-05T13:54:18;15.52;;;9.32;;
57720;SDS011;43562;43.064;0.160;2023-03-05T13:57:31;16.70;;;8.95;;
57720;SDS011;43562;43.064;0.160;2023-03-05T13:59:34;17.45;;;9.15;;
57720;SDS011;43562;43.064;0.160;2023-03-05T14:02:03;16.25;;;8.98;;
57720;SDS011;43562;43.064;0.160;2023-03-05T14:04:40;15.77;;;10.02;;
57720;SDS011;43562;43.064;0.160;2023-03-05T14:07:21;16.77;;;9.65;;
57720;SDS011;43562;43.064;0.160;2023-03-05T14:09:50;13.65;;;9.70;;
57720;SDS011;43562;43.064;0.160;2023-03-05T14:12:22;17.38;;;10.25;;
57720;SDS011;43562;43.064;0.160;2023-03-05T14:14:51;15.38;;;8.90;;
57720;SDS011;43562;43.064;0.160;2023-03-05T14:22:33;18.80;;;10.35;;
57720;SDS011;43562;43.064;0.160;2023-03-05T14:25:00;18.58;;;10.18;;
57720;SDS011;43562;43.064;0.160;2023-03-05T14:27:27;16.77;;;10.68;;
57720;SDS011;43562;43.064;0.160;2023-03-05T14:29:55;17.17;;;10.20;;
57720;SDS011;43562;43.064;0.160;2023-03-05T14:32:27;14.30;;;9.27;;
57720;SDS011;43562;43.064;0.160;2023-03-05T14:34:58;18.30;;;9.88;;
57720;SDS011;43562;43.064;0.160;2023-03-05T14:37:32;15.93;;;10.40;;
57720;SDS011;43562;43.064;0.160;2023-03-05T14:40:00;15.07;;;9.02;;
57720;SDS011;43562;43.064;0.160;2023-03-05T14:44:58;13.48;;;9.15;;
57720;SDS011;43562;43.064;0.160;2023-03-05T14:47:24;14.82;;;9.63;;
57720;SDS011;43562;43.064;0.160;2023-03-05T14:49:51;14.55;;;9.25;;
57720;SDS011;43562;43.064;0.160;2023-03-05T14:52:18;13.60;;;10.38;;
57720;SDS011;43562;43.064;0.160;2023-03-05T14:54:45;21.08;;;9.63;;
57720;SDS011;43562;43.064;0.160;2023-03-05T14:57:15;19.63;;;10.43;;
57720;SDS011;43562;43.064;0.160;2023-03-05T14:59:43;15.02;;;8.95;;
57720;SDS011;43562;43.064;0.160;2023-03-05T15:02:16;14.90;;;9.57;;
57720;SDS011;43562;43.064;0.160;2023-03-05T15:04:43;17.20;;;9.30;;
57720;SDS011;43562;43.064;0.160;2023-03-05T15:07:16;12.77;;;8.55;;
57720;SDS011;43562;43.064;0.160;2023-03-05T15:09:43;16.65;;;9.95;;
57720;SDS011;43562;43.064;0.160;2023-03-05T15:12:11;17.33;;;9.13;;
57720;SDS011;43562;43.064;0.160;2023-03-05T15:14:37;14.15;;;8.98;;
57720;SDS011;43562;43.064;0.160;2023-03-05T15:17:08;16.83;;;9.75;;
57720;SDS011;43562;43.064;0.160;2023-03-05T15:19:35;13.40;;;9.20;;
57720;SDS011;43562;43.064;0.160;2023-03-05T15:22:01;13.38;;;9.00;;
57720;SDS011;43562;43.064;0.160;2023-03-05T15:24:27;13.93;;;8.90;;
57720;SDS011;43562;43.064;0.160;2023-03-05T15:26:53;13.85;;;9.57;;
57720;SDS011;43562;43.064;0.160;2023-03-05T15:29:19;16.20;;;10.10;;
57720;SDS011;43562;43.064;0.160;2023-03-05T15:31:45;16.90;;;10.75;;
57720;SDS011;43562;43.064;0.160;2023-03-05T15:34:11;12.38;;;9.55;;
57720;SDS011;43562;43.064;0.160;2023-03-05T15:36:37;14.60;;;10.40;;
57720;SDS011;43562;43.064;0.160;2023-03-05T15:39:03;12.77;;;8.85;;
57720;SDS011;43562;43.064;0.160;2023-03-05T15:41:29;16.30;;;11.02;;
57720;SDS011;43562;43.064;0.160;2023-03-05T15:43:55;15.10;;;9.73;;
57720;SDS011;43562;43.064;0.160;2023-03-05T15:46:21;13.65;;;9.68;;
57720;SDS011;43562;43.064;0.160;2023-03-05T15:48:48;15.68;;;9.50;;
57720;SDS011;43562;43.064;0.160;2023-03-05T15:51:14;18.45;;;9.90;;
57720;SDS011;43562;43.064;0.160;2023-03-05T15:53:41;16.83;;;9.45;;
57720;SDS011;43562;43.064;0.160;2023-03-05T15:56:12;18.80;;;10.82;;